MSC Hamburg — 3FYY8 — position and weather

sailwx.info

Track history (hours):
 
Tides and Currents Weather Stations Pressure Air Temp Water Temp Dewpoint Dewpoint Depression Visibility Wind Speed Wind Dir Waves Ship Positions

MSC Hamburg

Last reported at 2018-Aug-14 11:16 UTC. Time now 2018-Aug-19 22:53 UTC.
Position N 34°55' E 128°50'.

Length 399 m; draft 12 m.

Type: Ship (hazmat cat A). MMSI: 374886000.

Date/timePositionNaut miles runAvg speedWind from/ knotsBaromVisibWave heightAir tempDewpointWater temp
2018-Aug-14 11:16N 34°55' E 128°50'2 0.2
2018-Aug-13 20:20N 34°58' E 128°49'  
2018-Aug-11 04:46N 37°37' E 123°41'518.4
2018-Aug-11 04:28N 37°41' E 123°36'1018.4
2018-Aug-11 03:56N 37°47' E 123°27'818.3
2018-Aug-11 03:31N 37°53' E 123°20'918.2
2018-Aug-11 03:00N 37°59' E 123°11'917.8
2018-Aug-11 02:30N 38°05' E 123°03'1917.3
2018-Aug-11 01:26N 38°17' E 122°45'817.9
2018-Aug-11 01:00N 38°23' E 122°38'917.4
2018-Aug-11 00:30N 38°28' E 122°30'1317.2
2018-Aug-10 23:44N 38°38' E 122°18'717.2
2018-Aug-10 23:21N 38°42' E 122°11'617.4
2018-Aug-10 23:01N 38°46' E 122°06'917.0
2018-Aug-10 22:30N 38°51' E 121°57'611.7
2018-Aug-10 21:59N 38°58' E 121°57'1 0.1
2018-Aug-09 22:30N 38°59' E 121°56'812.1
2018-Aug-09 21:51N 38°51' E 121°55'2 7.2
2018-Aug-09 21:30N 38°49' E 121°54'815.9
2018-Aug-09 21:00N 38°41' E 121°50'918.7
2018-Aug-09 20:30N 38°33' E 121°45'713.8
2018-Aug-09 20:00N 38°30' E 121°37'814.6
2018-Aug-09 19:29N 38°30' E 121°27'715.1
2018-Aug-09 19:00N 38°30' E 121°18'816.1
2018-Aug-09 18:30N 38°30' E 121°08'815.4
2018-Aug-09 18:00N 38°31' E 120°58'713.9
2018-Aug-09 17:30N 38°33' E 120°50'713.8
2018-Aug-09 17:00N 38°33' E 120°41'714.1
2018-Aug-09 16:30N 38°33' E 120°32'714.3
2018-Aug-09 16:00N 38°33' E 120°23'918.6
2018-Aug-09 15:30N 38°34' E 120°11'918.4
2018-Aug-09 15:00N 38°34' E 119°59'918.4
2018-Aug-09 14:30N 38°34' E 119°47'918.0
2018-Aug-09 14:00N 38°34' E 119°36'1017.9
2018-Aug-09 13:28N 38°36' E 119°24'918.3
2018-Aug-09 13:00N 38°39' E 119°14'918.3
2018-Aug-09 12:30N 38°43' E 119°03'918.2
2018-Aug-09 12:00N 38°47' E 118°52'918.2
2018-Aug-09 11:30N 38°48' E 118°41'918.5
2018-Aug-09 11:00N 38°49' E 118°29'918.6
2018-Aug-09 10:30N 38°50' E 118°17'1014.9
2018-Aug-09 09:52N 38°55' E 118°06'3 9.7
2018-Aug-09 09:30N 38°56' E 118°02'712.9
2018-Aug-09 08:58N 38°57' E 117°53'48 1.0
2018-Aug-07 09:40N 38°48' E 118°54'9713.4
2018-Aug-07 02:24N 38°34' E 120°58'1014.4
2018-Aug-07 01:41N 38°30' E 121°09'414.2
2018-Aug-07 01:26N 38°28' E 121°13'613.7
2018-Aug-07 01:00N 38°26' E 121°21'713.6
2018-Aug-07 00:31N 38°24' E 121°29'1613.5
2018-Aug-06 23:18N 38°17' E 121°48'513.0
2018-Aug-06 22:56N 38°15' E 121°53'613.0
2018-Aug-06 22:30N 38°13' E 121°60'612.7
2018-Aug-06 22:00N 38°11' E 122°07'612.3
2018-Aug-06 21:30N 38°08' E 122°14'612.4
2018-Aug-06 21:00N 38°06' E 122°22'612.7
2018-Aug-06 20:30N 38°03' E 122°29'713.1
2018-Aug-06 20:00N 38°01' E 122°37'713.3
2018-Aug-06 19:30N 37°58' E 122°44'713.3
2018-Aug-06 19:00N 37°56' E 122°52'713.2
2018-Aug-06 18:30N 37°53' E 123°00'713.9
2018-Aug-06 18:00N 37°50' E 123°08'813.5
2018-Aug-06 17:26N 37°47' E 123°17'712.6
2018-Aug-06 16:53N 37°42' E 123°23'514.5
2018-Aug-06 16:30N 37°36' E 123°23'714.4
2018-Aug-06 16:00N 37°29' E 123°23'714.3
2018-Aug-06 15:30N 37°22' E 123°23'714.3
2018-Aug-06 15:01N 37°15' E 123°23'713.8
2018-Aug-06 14:29N 37°08' E 123°24'613.4
2018-Aug-06 14:00N 37°01' E 123°24'713.5
2018-Aug-06 13:31N 36°55' E 123°24'913.7
2018-Aug-06 12:52N 36°46' E 123°24'613.5
2018-Aug-06 12:26N 36°40' E 123°24'33713.3
2018-Aug-05 11:04N 31°05' E 122°46'214.1
2018-Aug-05 10:57N 31°03' E 122°44'613.5
2018-Aug-05 10:30N 30°60' E 122°39'812.2
2018-Aug-05 09:50N 30°60' E 122°29'413.3
2018-Aug-05 09:30N 31°01' E 122°24'812.7
2018-Aug-05 08:53N 31°02' E 122°15'4 8.7
2018-Aug-05 08:24N 31°02' E 122°10'7 7.6
2018-Aug-05 07:25N 31°05' E 122°02'3 7.7
2018-Aug-05 07:00N 31°06' E 121°59'3 5.6
2018-Aug-05 06:30N 31°07' E 121°56'4 9.0
2018-Aug-05 06:00N 31°10' E 121°52'510.6
2018-Aug-05 05:31N 31°14' E 121°47'610.6
2018-Aug-05 04:55N 31°19' E 121°42'2 5.2
2018-Aug-05 04:30N 31°19' E 121°45'4 7.4
2018-Aug-05 04:00N 31°22' E 121°42'  
Track history (hours):
 
Tides and Currents Weather Stations Pressure Air Temp Water Temp Dewpoint Dewpoint Depression Visibility Wind Speed Wind Dir Waves Ship Positions

MSC Hamburg

Last reported at 2018-Aug-14 11:16 UTC. Time now 2018-Aug-19 22:53 UTC.
Position N 34°55' E 128°50'.

Length 399 m; draft 12 m.

Type: Ship (hazmat cat A). MMSI: 374886000.

Date/timePositionNaut miles runAvg speedWind from/ knotsBaromVisibWave heightAir tempDewpointWater temp
2018-Aug-14 11:16N 34°55' E 128°50'2 0.2
2018-Aug-13 20:20N 34°58' E 128°49'  
2018-Aug-11 04:46N 37°37' E 123°41'518.4
2018-Aug-11 04:28N 37°41' E 123°36'1018.4
2018-Aug-11 03:56N 37°47' E 123°27'818.3
2018-Aug-11 03:31N 37°53' E 123°20'918.2
2018-Aug-11 03:00N 37°59' E 123°11'917.8
2018-Aug-11 02:30N 38°05' E 123°03'1917.3
2018-Aug-11 01:26N 38°17' E 122°45'817.9
2018-Aug-11 01:00N 38°23' E 122°38'917.4
2018-Aug-11 00:30N 38°28' E 122°30'1317.2
2018-Aug-10 23:44N 38°38' E 122°18'717.2
2018-Aug-10 23:21N 38°42' E 122°11'617.4
2018-Aug-10 23:01N 38°46' E 122°06'917.0
2018-Aug-10 22:30N 38°51' E 121°57'611.7
2018-Aug-10 21:59N 38°58' E 121°57'1 0.1
2018-Aug-09 22:30N 38°59' E 121°56'812.1
2018-Aug-09 21:51N 38°51' E 121°55'2 7.2
2018-Aug-09 21:30N 38°49' E 121°54'815.9
2018-Aug-09 21:00N 38°41' E 121°50'918.7
2018-Aug-09 20:30N 38°33' E 121°45'713.8
2018-Aug-09 20:00N 38°30' E 121°37'814.6
2018-Aug-09 19:29N 38°30' E 121°27'715.1
2018-Aug-09 19:00N 38°30' E 121°18'816.1
2018-Aug-09 18:30N 38°30' E 121°08'815.4
2018-Aug-09 18:00N 38°31' E 120°58'713.9
2018-Aug-09 17:30N 38°33' E 120°50'713.8
2018-Aug-09 17:00N 38°33' E 120°41'714.1
2018-Aug-09 16:30N 38°33' E 120°32'714.3
2018-Aug-09 16:00N 38°33' E 120°23'918.6
2018-Aug-09 15:30N 38°34' E 120°11'918.4
2018-Aug-09 15:00N 38°34' E 119°59'918.4
2018-Aug-09 14:30N 38°34' E 119°47'918.0
2018-Aug-09 14:00N 38°34' E 119°36'1017.9
2018-Aug-09 13:28N 38°36' E 119°24'918.3
2018-Aug-09 13:00N 38°39' E 119°14'918.3
2018-Aug-09 12:30N 38°43' E 119°03'918.2
2018-Aug-09 12:00N 38°47' E 118°52'918.2
2018-Aug-09 11:30N 38°48' E 118°41'918.5
2018-Aug-09 11:00N 38°49' E 118°29'918.6
2018-Aug-09 10:30N 38°50' E 118°17'1014.9
2018-Aug-09 09:52N 38°55' E 118°06'3 9.7
2018-Aug-09 09:30N 38°56' E 118°02'712.9
2018-Aug-09 08:58N 38°57' E 117°53'48 1.0
2018-Aug-07 09:40N 38°48' E 118°54'9713.4
2018-Aug-07 02:24N 38°34' E 120°58'1014.4
2018-Aug-07 01:41N 38°30' E 121°09'414.2
2018-Aug-07 01:26N 38°28' E 121°13'613.7
2018-Aug-07 01:00N 38°26' E 121°21'713.6
2018-Aug-07 00:31N 38°24' E 121°29'1613.5
2018-Aug-06 23:18N 38°17' E 121°48'513.0
2018-Aug-06 22:56N 38°15' E 121°53'613.0
2018-Aug-06 22:30N 38°13' E 121°60'612.7
2018-Aug-06 22:00N 38°11' E 122°07'612.3
2018-Aug-06 21:30N 38°08' E 122°14'612.4
2018-Aug-06 21:00N 38°06' E 122°22'612.7
2018-Aug-06 20:30N 38°03' E 122°29'713.1
2018-Aug-06 20:00N 38°01' E 122°37'713.3
2018-Aug-06 19:30N 37°58' E 122°44'713.3
2018-Aug-06 19:00N 37°56' E 122°52'713.2
2018-Aug-06 18:30N 37°53' E 123°00'713.9
2018-Aug-06 18:00N 37°50' E 123°08'813.5
2018-Aug-06 17:26N 37°47' E 123°17'712.6
2018-Aug-06 16:53N 37°42' E 123°23'514.5
2018-Aug-06 16:30N 37°36' E 123°23'714.4
2018-Aug-06 16:00N 37°29' E 123°23'714.3
2018-Aug-06 15:30N 37°22' E 123°23'714.3
2018-Aug-06 15:01N 37°15' E 123°23'713.8
2018-Aug-06 14:29N 37°08' E 123°24'613.4
2018-Aug-06 14:00N 37°01' E 123°24'713.5
2018-Aug-06 13:31N 36°55' E 123°24'913.7
2018-Aug-06 12:52N 36°46' E 123°24'613.5
2018-Aug-06 12:26N 36°40' E 123°24'33713.3
2018-Aug-05 11:04N 31°05' E 122°46'214.1
2018-Aug-05 10:57N 31°03' E 122°44'613.5
2018-Aug-05 10:30N 30°60' E 122°39'812.2
2018-Aug-05 09:50N 30°60' E 122°29'413.3
2018-Aug-05 09:30N 31°01' E 122°24'812.7
2018-Aug-05 08:53N 31°02' E 122°15'4 8.7
2018-Aug-05 08:24N 31°02' E 122°10'7 7.6
2018-Aug-05 07:25N 31°05' E 122°02'3 7.7
2018-Aug-05 07:00N 31°06' E 121°59'3 5.6
2018-Aug-05 06:30N 31°07' E 121°56'4 9.0
2018-Aug-05 06:00N 31°10' E 121°52'510.6
2018-Aug-05 05:31N 31°14' E 121°47'610.6
2018-Aug-05 04:55N 31°19' E 121°42'2 5.2
2018-Aug-05 04:30N 31°19' E 121°45'4 7.4
2018-Aug-05 04:00N 31°22' E 121°42'  

Dump ship's entire track history